Broken Hill Patton Street, Australia
Current Conditions -  °F | °C
As of 12:00 PM on Saturday 25 Oct 2014 (Local Time) from YBHI Reporting Station
Clear Clear  
Wind Chill: 97°   Ceiling: Unl
Heat Index: 97°   Visibility: 6mi
Dew Point: 39°   Wind: 18mph
Humidity: 14%   Direction: 250°WSW
Pressure: 29.97"   Gusts: NA
Location:  31.98°S, 141.47°E
Report Text: YBHI 250200Z AUTO 25016KT 9999 // NCD 36/04 Q1015
Loading
Personal Weather Stations






























Interactive Weather Map
Tropical Storm Tracking
New forecast layout! Learn more

10-Day Weather Forecast

Advertisements
Track Severe Weather on mobile